Time;durP1;ratioP1;P1;durP2;ratioP2;P2;SDS_P1;SDS_P2;PMS_P1;PMS_P2;Temp;Humidity;BMP_temperature;BMP_pressure;BME280_temperature;BME280_humidity;BME280_pressure;Samples;Min_cycle;Max_cycle;Signal;HPM_P1;HPM_P2
2022/10/24 03:28:21;;;;;;;2.90;1.47;;;14.00;99.90;;;14.22;87.40;97700.56;5351706;22;21315;-76
2022/10/24 03:30:48;;;;;;;9.23;2.30;;;14.00;99.90;;;14.23;87.02;97708.44;5043507;28;20467;-76
2022/10/24 03:33:15;;;;;;;5.63;2.30;;;14.00;99.90;;;14.11;86.85;97694.97;5071640;28;20452;-75
2022/10/24 03:35:43;;;;;;;8.97;2.43;;;13.90;99.90;;;14.04;87.66;97699.75;5043888;28;20522;-76
2022/10/24 03:38:10;;;;;;;9.33;2.10;;;13.90;99.90;;;14.03;88.65;97709.78;5041682;28;20493;-75
2022/10/24 03:40:38;;;;;;;3.17;2.07;;;13.90;99.90;;;14.12;88.08;97712.91;5058038;28;20538;-75
2022/10/24 03:43:05;;;;;;;2.60;1.50;;;13.90;99.90;;;14.19;87.82;97730.94;5055751;28;20868;-75
2022/10/24 03:45:33;;;;;;;4.90;2.47;;;13.90;99.90;;;14.17;87.32;97725.75;5044634;28;20460;-75
2022/10/24 03:48:01;;;;;;;3.10;1.80;;;13.80;99.90;;;14.02;88.14;97715.44;5051580;28;20506;-76
2022/10/24 03:50:28;;;;;;;5.10;1.53;;;13.80;99.90;;;13.94;88.33;97713.13;5043088;28;20475;-75
2022/10/24 03:52:55;;;;;;;4.37;2.10;;;13.80;99.90;;;13.80;89.55;97721.59;5048788;28;20468;-77
2022/10/24 03:55:23;;;;;;;7.33;2.43;;;13.70;99.90;;;13.98;89.34;97717.00;5041596;28;20457;-77
2022/10/24 03:57:50;;;;;;;6.27;2.50;;;13.70;99.90;;;13.96;89.45;97724.56;5050583;28;20467;-78
2022/10/24 04:00:18;;;;;;;4.33;1.93;;;13.70;99.90;;;13.79;89.88;97717.22;5040061;28;20528;-78
2022/10/24 04:02:49;;;;;;;7.50;2.30;;;13.70;99.90;;;13.81;90.29;97709.66;5045515;28;20508;-79
2022/10/24 04:05:16;;;;;;;5.03;2.07;;;13.70;99.90;;;13.60;90.07;97673.16;5049263;28;20489;-77
2022/10/24 04:07:44;;;;;;;8.20;2.20;;;13.70;99.90;;;13.82;89.80;97699.63;5032051;28;20477;-77
2022/10/24 04:10:11;;;;;;;4.50;2.40;;;13.80;99.90;;;13.84;90.61;97694.78;5046586;28;20480;-76
2022/10/24 04:12:38;;;;;;;5.33;2.20;;;13.80;99.90;;;13.93;89.68;97703.34;5038288;28;21213;-77
2022/10/24 04:15:07;;;;;;;5.20;2.00;;;13.70;99.90;;;13.98;89.19;97701.53;5043067;28;21160;-78
2022/10/24 04:17:34;;;;;;;7.00;2.23;;;13.80;99.90;;;13.93;89.36;97697.91;5063139;28;20444;-79
2022/10/24 04:20:03;;;;;;;5.03;2.20;;;13.80;99.90;;;13.58;90.53;97676.13;5063470;28;20475;-77
2022/10/24 04:22:30;;;;;;;8.90;4.07;;;13.70;99.90;;;13.84;90.31;97711.06;5050754;28;21121;-77
2022/10/24 04:24:57;;;;;;;7.93;3.90;;;13.80;99.90;;;13.83;90.00;97698.56;5061993;28;20447;-77
2022/10/24 04:27:24;;;;;;;6.60;3.13;;;13.80;99.90;;;13.88;89.88;97704.91;5061268;28;20462;-79
2022/10/24 04:29:51;;;;;;;6.87;2.60;;;13.80;99.90;;;13.97;89.67;97715.34;5039218;28;20515;-77
2022/10/24 04:32:19;;;;;;;2.60;1.80;;;13.90;99.90;;;13.72;88.97;97673.94;5058565;28;20572;-77
2022/10/24 04:34:46;;;;;;;3.90;2.00;;;13.90;99.90;;;14.03;88.92;97714.41;5063459;28;20516;-76
2022/10/24 04:37:14;;;;;;;8.90;2.13;;;13.90;99.90;;;13.98;89.12;97689.84;5064507;28;20451;-77
2022/10/24 04:39:42;;;;;;;5.60;1.90;;;14.00;99.90;;;14.03;88.38;97689.94;5046956;28;20513;-75
2022/10/24 04:42:09;;;;;;;3.20;2.10;;;14.00;99.90;;;14.03;88.45;97715.19;5059975;28;20480;-75
2022/10/24 04:44:36;;;;;;;7.07;2.90;;;14.00;99.90;;;14.19;88.10;97717.38;5048173;28;20459;-75
2022/10/24 04:47:04;;;;;;;3.77;2.00;;;14.00;99.90;;;14.08;88.28;97709.03;5053613;28;20457;-72
2022/10/24 04:49:31;;;;;;;4.13;2.60;;;14.00;99.90;;;13.99;88.43;97702.34;5045404;28;20467;-75
2022/10/24 04:51:58;;;;;;;6.87;2.37;;;14.00;99.90;;;14.10;88.53;97709.59;5073603;28;20517;-74
2022/10/24 04:54:27;;;;;;;2.97;2.03;;;14.00;99.90;;;14.09;88.34;97707.97;5056486;28;21033;-75
2022/10/24 04:56:54;;;;;;;6.50;2.47;;;14.00;99.90;;;14.16;88.03;97710.53;5042581;28;20461;-76
2022/10/24 04:59:23;;;;;;;5.93;2.50;;;14.00;99.90;;;14.13;88.03;97698.25;5037820;28;20444;-74
2022/10/24 05:01:50;;;;;;;3.30;1.97;;;14.00;99.90;;;14.14;87.81;97680.06;5038180;28;20999;-72
2022/10/24 05:04:17;;;;;;;7.33;2.40;;;14.10;99.90;;;14.25;87.33;97702.78;5049255;28;20463;-73
2022/10/24 05:06:45;;;;;;;5.20;2.30;;;14.10;99.90;;;14.22;87.74;97700.56;5036820;28;20460;-72
2022/10/24 05:09:13;;;;;;;8.10;2.63;;;14.10;99.90;;;13.76;88.05;97644.41;5038294;28;20735;-84
2022/10/24 05:11:42;;;;;;;5.40;2.70;;;14.00;99.90;;;14.17;87.65;97687.72;5044212;28;20467;-75
2022/10/24 05:14:09;;;;;;;6.90;2.77;;;14.00;99.90;;;14.22;87.98;97697.84;5055699;28;20916;-83
2022/10/24 05:16:36;;;;;;;3.70;2.33;;;14.00;99.90;;;13.99;87.30;97658.91;5042577;28;20466;-74
2022/10/24 05:19:03;;;;;;;7.67;3.50;;;14.00;99.90;;;14.28;87.61;97684.09;5036334;28;20447;-75
2022/10/24 05:21:31;;;;;;;5.80;3.07;;;14.10;99.90;;;14.28;86.93;97697.69;5040434;28;20472;-76
2022/10/24 05:23:59;;;;;;;4.00;2.10;;;14.10;99.90;;;14.21;87.89;97693.50;5041074;28;20460;-76
2022/10/24 05:26:27;;;;;;;5.80;2.73;;;14.10;99.90;;;14.21;87.11;97690.78;5045455;28;20522;-76
2022/10/24 05:28:55;;;;;;;5.90;3.03;;;14.10;99.90;;;14.21;87.64;97682.63;5060896;28;20555;-76
2022/10/24 05:31:23;;;;;;;5.87;2.33;;;14.00;99.90;;;14.24;87.67;97679.41;5042035;28;20469;-76
2022/10/24 05:33:50;;;;;;;10.17;2.40;;;14.10;99.90;;;14.09;87.92;97669.09;5050327;28;20567;-76
2022/10/24 05:36:18;;;;;;;6.33;2.53;;;14.10;99.90;;;14.15;87.86;97682.53;5048549;28;20976;-76
2022/10/24 05:38:45;;;;;;;4.47;2.23;;;14.10;99.90;;;14.14;87.73;97678.16;5037621;28;20883;-76
2022/10/24 05:41:12;;;;;;;6.77;2.70;;;14.10;99.90;;;14.14;88.39;97666.50;5041638;28;20450;-76
2022/10/24 05:43:39;;;;;;;5.93;2.73;;;14.10;99.90;;;14.19;88.36;97673.91;5053226;28;20444;-75
2022/10/24 05:46:09;;;;;;;3.83;2.90;;;14.00;99.90;;;14.29;87.62;97668.59;5039073;28;20453;-75
2022/10/24 05:48:36;;;;;;;8.90;2.70;;;14.10;99.90;;;14.25;87.41;97664.75;5042856;28;20481;-76
2022/10/24 05:51:03;;;;;;;13.80;7.50;;;14.10;99.90;;;14.27;87.31;97660.72;5037880;28;20467;-74
2022/10/24 05:53:31;;;;;;;5.47;2.73;;;14.10;99.90;;;14.15;88.54;97655.34;5053087;28;20481;-74
2022/10/24 05:55:58;;;;;;;9.40;3.23;;;14.10;99.90;;;14.13;88.13;97654.78;5041131;28;21064;-75
2022/10/24 05:58:26;;;;;;;8.47;2.43;;;14.10;99.90;;;14.17;88.02;97661.34;5053569;28;20501;-73
2022/10/24 06:00:53;;;;;;;4.97;2.43;;;14.10;99.90;;;14.24;87.82;97660.38;5047437;28;20472;-75
2022/10/24 06:03:22;;;;;;;8.37;3.23;;;14.10;99.90;;;14.17;88.23;97655.13;5051077;28;21106;-75
2022/10/24 06:05:50;;;;;;;12.63;2.80;;;14.10;99.90;;;14.23;87.94;97669.59;5054983;28;20469;-75
2022/10/24 06:08:17;;;;;;;7.00;2.73;;;14.10;99.90;;;14.21;87.82;97671.75;5040167;28;20460;-76
2022/10/24 06:10:47;;;;;;;7.43;2.70;;;14.10;99.90;;;14.20;87.86;97675.53;5054815;28;20454;-76
2022/10/24 06:13:15;;;;;;;8.33;3.33;;;14.20;99.90;;;14.25;87.28;97678.34;5051241;28;20482;-76
2022/10/24 06:15:43;;;;;;;6.60;2.57;;;14.20;99.90;;;14.21;87.38;97666.31;5042271;28;20456;-75
2022/10/24 06:18:11;;;;;;;3.87;2.60;;;14.20;99.90;;;14.38;87.02;97677.16;5061367;28;20500;-76
2022/10/24 06:20:39;;;;;;;8.40;3.10;;;14.20;99.90;;;14.38;86.88;97682.59;5032261;28;20549;-75
2022/10/24 06:23:06;;;;;;;6.00;3.30;;;14.30;99.80;;;14.51;86.64;97689.59;5037217;28;20483;-76
2022/10/24 06:25:34;;;;;;;9.33;2.60;;;14.30;99.90;;;14.63;85.87;97693.03;5029389;28;20467;-75
2022/10/24 06:28:01;;;;;;;8.17;2.40;;;14.40;98.50;;;14.19;85.95;97633.16;5044036;28;20466;-74
2022/10/24 06:30:28;;;;;;;8.70;3.07;;;14.50;98.10;;;14.87;84.64;97692.84;5037739;28;20767;-75
2022/10/24 06:32:56;;;;;;;5.17;2.80;;;14.60;97.60;;;14.82;84.52;97698.22;5048591;28;20452;-75
2022/10/24 06:35:23;;;;;;;7.57;3.20;;;14.70;96.90;;;15.06;83.09;97697.97;5039170;28;20554;-75
2022/10/24 06:37:51;;;;;;;9.30;3.47;;;14.80;96.40;;;15.13;82.44;97691.28;5040805;28;20462;-76
2022/10/24 06:40:19;;;;;;;6.33;2.73;;;14.90;95.70;;;15.17;82.36;97688.88;5041852;28;20465;-75
2022/10/24 06:42:46;;;;;;;5.80;2.70;;;14.90;95.80;;;15.06;82.75;97696.09;5035096;28;20493;-76
2022/10/24 06:45:15;;;;;;;4.50;2.53;;;14.90;95.20;;;15.08;82.90;97709.41;5034687;28;21012;-76
2022/10/24 06:47:42;;;;;;;4.30;2.80;;;15.00;95.10;;;15.24;81.93;97694.13;5049740;28;20586;-75
2022/10/24 06:50:09;;;;;;;8.50;3.30;;;15.10;94.80;;;15.33;81.74;97698.06;5040564;28;20833;-75
2022/10/24 06:52:37;;;;;;;8.67;2.87;;;15.10;94.50;;;15.40;81.13;97693.22;5032555;28;20456;-75
2022/10/24 06:55:07;;;;;;;6.67;3.07;;;15.20;94.30;;;15.46;80.47;97699.56;5034515;28;20470;-76
2022/10/24 06:57:35;;;;;;;8.30;3.20;;;15.20;93.90;;;15.48;80.46;97700.13;5047426;28;20477;-78
2022/10/24 07:00:02;;;;;;;7.30;2.70;;;15.30;93.70;;;15.74;79.66;97703.13;5046604;28;20449;-76
2022/10/24 07:02:30;;;;;;;14.33;3.27;;;15.40;93.50;;;15.78;79.26;97692.53;5053621;28;20546;-76
2022/10/24 07:04:57;;;;;;;7.27;2.90;;;15.50;93.20;;;15.73;79.19;97691.38;5074476;28;20451;-76
2022/10/24 07:07:25;;;;;;;7.20;2.60;;;15.50;93.00;;;15.95;78.58;97697.88;5044674;28;21276;-75
2022/10/24 07:09:55;;;;;;;9.37;2.53;;;15.60;92.80;;;16.00;78.30;97700.69;5047372;28;20488;-75
2022/10/24 07:12:25;;;;;;;11.30;3.20;;;15.70;92.60;;;16.26;77.13;97711.78;5038220;28;20464;-75
2022/10/24 07:14:52;;;;;;;3.63;2.40;;;15.80;92.20;;;16.25;76.30;97708.25;5044504;28;20456;-74
2022/10/24 07:17:20;;;;;;;5.00;2.63;;;16.00;91.60;;;16.41;75.98;97711.91;5045511;28;20465;-74
2022/10/24 07:19:53;;;;;;;4.30;3.20;;;16.00;91.50;;;16.45;75.47;97719.56;5044396;28;20983;-75
2022/10/24 07:22:21;;;;;;;9.27;3.40;;;16.10;91.20;;;16.40;75.73;97742.16;5050305;28;20507;-76
2022/10/24 07:24:53;;;;;;;8.53;3.10;;;16.10;91.20;;;16.42;75.61;97767.25;5071326;28;20478;-75
2022/10/24 07:27:23;;;;;;;9.03;2.73;;;16.10;91.00;;;16.30;76.22;97789.22;5046288;28;20461;-76
2022/10/24 07:29:50;;;;;;;6.20;2.80;;;16.10;91.20;;;16.22;76.31;97786.97;5043462;28;20463;-77
2022/10/24 07:32:17;;;;;;;15.53;3.27;;;16.00;91.30;;;16.07;77.44;97818.44;5049175;28;20525;-76
2022/10/24 07:34:46;;;;;;;11.43;4.90;;;16.00;91.40;;;16.03;79.89;97852.75;5044969;28;20459;-76
2022/10/24 07:37:14;;;;;;;17.17;4.20;;;15.90;92.30;;;15.69;83.29;97901.84;5038999;28;20458;-76
2022/10/24 07:39:41;;;;;;;6.20;3.43;;;15.70;95.40;;;14.93;90.01;97939.34;5040724;28;20458;-74
2022/10/24 07:42:10;;;;;;;3.50;2.53;;;15.20;99.90;;;14.54;92.47;97926.41;5039261;28;20552;-77
2022/10/24 07:44:39;;;;;;;3.60;1.90;;;14.80;99.90;;;14.29;92.43;97919.44;5036306;28;20980;-76
2022/10/24 07:47:08;;;;;;;7.80;2.60;;;14.50;99.90;;;14.17;94.56;97894.19;5034037;28;20978;-75
2022/10/24 07:49:36;;;;;;;8.13;2.70;;;14.30;99.90;;;14.17;94.60;97889.56;5033938;28;20678;-74
2022/10/24 07:52:03;;;;;;;6.57;2.30;;;14.30;99.90;;;14.08;93.83;97895.63;5029790;28;20464;-75
2022/10/24 07:54:31;;;;;;;6.13;4.13;;;14.10;99.90;;;14.08;93.20;97909.22;5043304;28;20461;-75
2022/10/24 07:56:58;;;;;;;5.27;2.33;;;14.00;99.90;;;14.03;93.10;97916.19;5032907;28;20472;-73
2022/10/24 07:59:25;;;;;;;5.73;3.00;;;14.00;99.90;;;14.14;94.09;97906.34;5035235;28;20469;-76
2022/10/24 08:01:54;;;;;;;5.60;1.90;;;14.00;99.90;;;14.13;93.96;97907.44;5047518;28;20467;-76
2022/10/24 08:04:21;;;;;;;9.13;3.07;;;14.00;99.90;;;14.31;94.14;97911.03;5042640;28;21291;-75
2022/10/24 08:06:48;;;;;;;6.50;2.63;;;14.00;99.90;;;14.06;93.84;97898.59;5029694;28;20469;-73
2022/10/24 08:09:17;;;;;;;7.57;3.37;;;14.10;99.90;;;14.06;94.24;97909.47;5040576;28;20956;-75
2022/10/24 08:11:44;;;;;;;4.13;2.60;;;14.10;99.90;;;14.11;94.37;97917.72;5042616;28;20464;-75
2022/10/24 08:14:11;;;;;;;4.00;2.27;;;14.00;99.90;;;13.93;94.77;97893.44;5051834;28;20997;-75
2022/10/24 08:16:41;;;;;;;6.80;3.10;;;14.00;99.90;;;13.98;95.96;97890.81;5049254;28;21233;-74
2022/10/24 08:19:13;;;;;;;5.63;2.87;;;14.00;99.90;;;13.81;96.71;97852.75;5042927;28;21034;-75
2022/10/24 08:21:40;;;;;;;9.50;3.63;;;13.90;99.90;;;13.90;97.96;97864.06;5038822;28;20977;-75
2022/10/24 08:24:08;;;;;;;5.70;3.30;;;13.90;99.90;;;13.80;98.33;97857.34;5036385;28;20474;-76
2022/10/24 08:26:39;;;;;;;6.40;3.67;;;13.80;99.90;;;13.98;98.98;97864.50;5046421;28;20481;-75
2022/10/24 08:29:10;;;;;;;7.10;3.87;;;13.90;99.90;;;13.91;99.33;97857.56;5036075;28;20463;-75
2022/10/24 08:31:37;;;;;;;5.97;3.47;;;13.90;99.90;;;13.91;99.57;97835.84;5049822;28;20581;-75
2022/10/24 08:34:05;;;;;;;9.43;4.23;;;13.90;99.90;;;14.01;99.43;97814.28;5024652;28;20466;-73
2022/10/24 08:36:35;;;;;;;7.20;3.70;;;13.90;99.90;;;14.01;99.12;97798.81;5029380;28;21080;-74
2022/10/24 08:39:03;;;;;;;7.70;3.90;;;14.00;99.90;;;13.94;99.32;97770.97;5050250;28;20451;-74
2022/10/24 08:41:35;;;;;;;6.80;4.10;;;14.00;99.90;;;14.24;98.66;97785.38;5048949;28;20730;-74
2022/10/24 08:44:06;;;;;;;7.70;4.17;;;14.00;99.90;;;13.63;98.37;97720.72;5042889;28;20472;-73
2022/10/24 08:46:47;;;;;;;9.67;4.40;;;14.00;99.90;;;13.98;99.15;97782.19;5044886;28;20465;-74
2022/10/24 08:49:30;;;;;;;7.77;3.93;;;14.00;99.90;;;13.95;98.20;97771.81;5024637;28;20543;-74
2022/10/24 08:52:04;;;;;;;4.87;3.33;;;14.00;99.90;;;14.06;98.18;97778.25;5046757;28;20466;-74
2022/10/24 08:54:36;;;;;;;5.70;3.10;;;14.00;99.90;;;14.37;97.67;97779.63;5047932;28;20572;-75
2022/10/24 08:57:06;;;;;;;5.30;3.70;;;14.10;99.90;;;14.41;95.58;97797.06;5041111;28;20468;-74
2022/10/24 08:59:36;;;;;;;7.37;3.53;;;14.30;99.90;;;14.41;95.96;97780.75;5037236;28;20871;-75
2022/10/24 09:02:15;;;;;;;6.30;3.63;;;14.30;99.90;;;14.52;95.36;97800.78;5046208;28;20450;-75
2022/10/24 09:04:50;;;;;;;5.83;3.13;;;14.30;99.90;;;14.62;94.26;97802.84;5039952;28;20577;-74
2022/10/24 09:07:22;;;;;;;6.97;3.13;;;14.40;99.90;;;14.82;93.50;97802.38;5044143;28;20520;-75
2022/10/24 09:09:52;;;;;;;5.53;3.00;;;14.50;99.90;;;14.70;93.68;97805.16;5045631;28;20465;-75
2022/10/24 09:12:21;;;;;;;7.77;3.40;;;14.60;99.90;;;14.38;94.67;97803.00;5045244;28;21329;-75
2022/10/24 09:14:55;;;;;;;4.43;2.80;;;14.50;99.90;;;14.69;94.30;97814.38;5039975;28;20853;-75
2022/10/24 09:17:24;;;;;;;7.13;3.00;;;14.60;99.90;;;14.56;94.70;97803.84;5042238;28;20847;-77
2022/10/24 09:19:55;;;;;;;7.77;3.87;;;14.50;99.90;;;14.78;93.37;97805.84;5042440;28;20480;-74
2022/10/24 09:22:28;;;;;;;8.60;3.13;;;14.60;99.90;;;14.87;93.20;97816.06;5048885;28;20458;-75
2022/10/24 09:25:01;;;;;;;6.33;3.63;;;14.70;99.90;;;14.83;92.91;97812.19;5053118;28;20513;-74
2022/10/24 09:27:35;;;;;;;6.10;2.90;;;14.70;99.90;;;14.65;92.58;97786.06;5046789;28;20504;-76
2022/10/24 09:30:06;;;;;;;8.77;3.27;;;14.80;99.90;;;14.49;93.99;97771.38;5040986;28;20469;-74
2022/10/24 09:32:36;;;;;;;9.43;3.17;;;14.60;99.90;;;14.42;94.40;97765.28;5039408;28;20506;-75
2022/10/24 09:35:07;;;;;;;5.63;3.13;;;14.50;99.90;;;14.53;93.85;97779.88;5038705;28;20465;-75
2022/10/24 09:37:41;;;;;;;9.80;2.77;;;14.50;99.90;;;14.60;92.82;97799.53;5047388;28;20456;-74
2022/10/24 09:40:24;;;;;;;3.83;2.10;;;14.50;99.90;;;14.85;92.08;97814.66;5041870;28;20446;-75
2022/10/24 09:42:57;;;;;;;5.67;2.93;;;14.60;99.90;;;14.82;91.26;97807.00;5066687;28;20468;-74
2022/10/24 09:45:40;;;;;;;3.77;1.90;;;14.70;99.90;;;14.88;92.07;97789.69;5046950;28;20464;-74
2022/10/24 09:48:18;;;;;;;4.80;2.00;;;14.80;99.90;;;15.01;90.96;97789.34;5042643;28;20673;-75
2022/10/24 09:50:48;;;;;;;5.23;2.30;;;14.80;99.90;;;14.88;91.43;97781.53;5047037;28;20899;-75
2022/10/24 09:53:27;;;;;;;7.57;2.37;;;14.80;99.90;;;14.96;91.57;97818.34;5048074;28;20497;-73
2022/10/24 09:55:58;;;;;;;6.10;2.90;;;14.80;99.90;;;15.07;91.68;97830.22;5044826;28;20491;-75
2022/10/24 09:58:31;;;;;;;4.23;2.50;;;14.90;99.90;;;15.11;91.13;97836.81;5060367;28;20541;-75
2022/10/24 10:01:05;;;;;;;6.30;2.13;;;15.00;99.90;;;15.24;90.00;97838.34;5046848;28;20468;-74
2022/10/24 10:03:33;;;;;;;9.20;3.20;;;15.10;99.90;;;14.90;91.26;97771.22;5057491;28;20531;-75
2022/10/24 10:06:13;;;;;;;10.07;3.23;;;15.10;99.90;;;15.39;90.84;97821.41;5055250;28;20514;-76
2022/10/24 10:08:49;;;;;;;5.40;2.93;;;15.20;99.90;;;15.61;89.59;97828.78;5056851;28;20453;-75
2022/10/24 10:11:17;;;;;;;5.03;2.60;;;15.30;99.90;;;15.57;89.68;97823.84;5046988;28;21032;-75
2022/10/24 10:13:48;;;;;;;7.30;3.07;;;15.40;99.90;;;15.19;90.33;97771.06;5069823;28;20439;-76
2022/10/24 10:16:24;;;;;;;5.17;3.60;;;15.40;99.90;;;15.46;90.75;97819.34;5057506;28;20834;-76
2022/10/24 10:19:02;;;;;;;5.90;3.00;;;15.40;99.90;;;15.68;90.46;97818.50;5055552;28;20462;-76
2022/10/24 10:21:55;;;;;;;4.93;2.97;;;15.50;99.90;;;15.53;90.45;97806.34;5047451;28;20477;-75
2022/10/24 10:24:37;;;;;;;10.23;3.87;;;15.50;99.90;;;15.42;91.91;97808.13;5035453;28;20966;-75
2022/10/24 10:27:29;;;;;;;5.97;3.40;;;15.40;99.90;;;15.00;92.27;97760.50;5043714;28;20477;-75
2022/10/24 10:30:18;;;;;;;5.17;3.50;;;15.30;99.90;;;15.47;91.61;97801.91;5044614;28;20496;-76
2022/10/24 10:33:09;;;;;;;5.50;3.33;;;15.40;99.90;;;15.67;90.47;97816.84;5060599;28;20468;-75
2022/10/24 10:35:44;;;;;;;6.47;3.70;;;15.40;99.90;;;15.52;90.38;97803.91;5032167;28;20944;-76
2022/10/24 10:38:37;;;;;;;5.00;3.50;;;15.50;99.90;;;15.53;91.63;97806.34;5043128;28;20456;-76
2022/10/24 10:41:15;;;;;;;6.13;3.00;;;15.40;99.90;;;15.63;91.39;97815.72;5047397;28;20464;-74
2022/10/24 10:43:48;;;;;;;10.63;3.83;;;15.40;99.90;;;15.81;90.86;97820.84;5047112;28;20878;-74
2022/10/24 10:46:28;;;;;;;6.63;3.50;;;15.50;99.90;;;15.84;90.73;97812.16;5063643;28;20892;-75
2022/10/24 10:49:09;;;;;;;7.57;4.17;;;15.60;99.90;;;15.93;90.11;97803.56;5060283;28;20555;-74
2022/10/24 10:51:43;;;;;;;6.30;3.30;;;15.70;99.90;;;16.17;88.70;97800.56;5047787;28;20457;-75
2022/10/24 10:54:34;;;;;;;7.70;4.27;;;15.80;99.90;;;15.83;90.69;97805.06;5039336;28;20461;-77
2022/10/24 10:57:08;;;;;;;13.33;4.47;;;15.70;99.90;;;15.99;90.12;97810.72;5040142;28;20458;-75
2022/10/24 10:59:48;;;;;;;12.60;3.60;;;15.70;99.90;;;16.18;88.52;97824.00;5043114;28;20471;-75
2022/10/24 11:02:37;;;;;;;8.40;4.23;;;15.90;99.90;;;16.07;88.42;97818.44;5049889;28;20553;-76
2022/10/24 11:05:23;;;;;;;7.70;3.60;;;15.90;99.90;;;16.14;88.20;97849.03;5052216;28;20472;-76
2022/10/24 11:08:00;;;;;;;9.30;4.37;;;16.00;99.90;;;16.26;88.11;97837.16;5041395;28;20997;-76
2022/10/24 11:10:33;;;;;;;9.03;3.70;;;16.10;99.90;;;16.42;86.82;97838.97;5043213;28;21000;-76
2022/10/24 11:13:10;;;;;;;7.50;4.00;;;16.10;99.90;;;16.40;86.71;97857.47;5055697;28;21252;-76
2022/10/24 11:15:43;;;;;;;6.37;3.90;;;16.20;99.90;;;16.34;87.19;97857.69;5037784;28;20472;-76
2022/10/24 11:18:17;;;;;;;9.10;4.17;;;16.20;99.90;;;16.53;86.59;97849.97;5049112;28;20972;-78
2022/10/24 11:20:50;;;;;;;5.80;3.67;;;16.30;99.90;;;16.55;85.74;97858.72;5040200;28;20460;-77
2022/10/24 11:23:26;;;;;;;7.90;3.30;;;16.40;98.70;;;16.49;85.79;97833.28;5050667;28;20469;-77
2022/10/24 11:25:59;;;;;;;7.73;3.40;;;16.40;98.60;;;15.97;88.25;97778.28;5045774;28;20456;-76
2022/10/24 11:28:34;;;;;;;5.30;3.70;;;16.10;99.90;;;15.92;89.35;97782.88;5042061;28;20477;-76
2022/10/24 11:31:08;;;;;;;7.97;3.50;;;15.90;99.90;;;16.24;88.00;97793.81;5042877;28;20481;-77
2022/10/24 11:33:43;;;;;;;7.50;3.87;;;16.00;99.90;;;16.33;86.99;97818.72;5042762;28;20694;-77
2022/10/24 11:36:18;;;;;;;6.63;3.20;;;16.10;99.90;;;16.35;86.29;97815.72;5040026;28;20452;-76
2022/10/24 11:38:52;;;;;;;11.57;3.43;;;16.20;99.30;;;16.57;85.94;97805.56;5039018;28;20498;-73
2022/10/24 11:41:34;;;;;;;10.33;3.57;;;16.30;99.30;;;16.41;85.81;97810.06;5050477;28;20471;-77
2022/10/24 11:44:15;;;;;;;7.13;2.83;;;16.30;98.20;;;16.34;85.00;97774.00;5046188;28;20477;-79
2022/10/24 11:46:44;;;;;;;5.70;3.10;;;16.40;98.10;;;16.46;86.18;97803.03;5035712;28;20512;-83
2022/10/24 11:49:23;;;;;;;5.37;3.10;;;16.30;98.50;;;16.40;85.27;97811.13;5043350;28;20520;-84
2022/10/24 11:51:55;;;;;;;4.53;2.63;;;16.40;97.60;;;16.60;85.55;97806.94;5036804;28;20553;-82
2022/10/24 11:54:29;;;;;;;7.93;3.30;;;16.40;98.60;;;16.29;86.16;97801.19;5045654;28;20530;-84
2022/10/24 11:57:00;;;;;;;8.00;2.90;;;16.30;97.50;;;16.30;86.63;97800.13;5039127;28;20490;-74
2022/10/24 11:59:29;;;;;;;5.30;3.00;;;16.30;98.90;;;16.66;85.20;97805.91;5042351;28;20459;-75
2022/10/24 12:02:41;;;;;;;5.23;3.03;;;16.40;98.50;;;16.42;85.86;97808.97;5039740;28;20535;-75
2022/10/24 12:05:50;;;;;;;7.30;3.67;;;16.40;97.60;;;16.38;86.08;97816.03;5036571;28;20487;-71
2022/10/24 12:09:05;;;;;;;4.90;3.10;;;16.40;97.30;;;16.71;84.62;97800.47;5029266;28;20466;-74
2022/10/24 12:11:52;;;;;;;6.10;3.40;;;16.50;97.40;;;16.54;84.93;97791.63;5031596;28;20469;-75
2022/10/24 12:14:42;;;;;;;4.57;2.83;;;16.50;97.10;;;17.00;83.06;97788.47;5028678;28;20466;-75
2022/10/24 12:17:38;;;;;;;6.07;2.60;;;16.70;96.10;;;16.85;83.06;97795.41;5037232;28;20494;-74
2022/10/24 12:20:12;;;;;;;3.57;2.23;;;16.80;95.40;;;17.05;82.11;97784.91;5043694;28;20468;-76
2022/10/24 12:22:43;;;;;;;4.80;2.50;;;16.90;95.30;;;17.08;82.43;97779.75;5036915;28;20458;-73
2022/10/24 12:25:22;;;;;;;5.90;2.90;;;17.00;95.20;;;17.13;82.59;97787.16;5057423;28;20495;-75
2022/10/24 12:27:55;;;;;;;4.90;2.57;;;17.10;95.10;;;17.09;82.86;97786.06;5047583;28;20940;-75
2022/10/24 12:30:26;;;;;;;7.60;2.40;;;17.00;95.30;;;17.34;80.92;97779.06;5034440;28;20458;-74
2022/10/24 12:32:58;;;;;;;10.40;2.87;;;17.20;94.50;;;17.66;79.89;97770.75;5033756;28;20455;-76
2022/10/24 12:35:50;;;;;;;10.60;2.93;;;17.30;94.20;;;17.34;80.63;97781.81;5044210;28;20453;-75
2022/10/24 12:39:06;;;;;;;6.27;2.90;;;17.20;93.80;;;17.58;80.25;97773.19;5044156;28;20470;-74
2022/10/24 12:41:43;;;;;;;11.10;3.07;;;17.30;94.40;;;17.67;80.28;97777.03;5032402;28;20990;-72
2022/10/24 12:44:40;;;;;;;10.27;2.90;;;17.40;94.10;;;17.59;79.98;97767.47;5035536;28;20482;-81
2022/10/24 12:47:38;;;;;;;8.37;2.60;;;17.50;93.90;;;17.47;80.51;97764.94;5035735;28;20463;-80
2022/10/24 12:50:58;;;;;;;10.80;3.13;;;17.40;93.60;;;17.46;80.75;97773.41;5070889;28;20452;-79
2022/10/24 12:53:38;;;;;;;9.17;3.57;;;17.40;93.80;;;17.63;79.59;97770.44;5034143;28;20449;-85
2022/10/24 12:56:18;;;;;;;6.03;3.00;;;17.50;93.70;;;17.36;79.66;97764.06;5053262;28;20820;-83
2022/10/24 12:58:59;;;;;;;5.23;2.90;;;17.30;93.30;;;17.16;80.79;97775.72;5058081;28;20460;-82
2022/10/24 13:01:33;;;;;;;4.47;3.00;;;17.20;93.70;;;17.12;81.52;97790.97;5046606;28;20447;-85
2022/10/24 13:04:47;;;;;;;5.67;2.53;;;17.00;94.10;;;17.17;81.17;97787.47;5065181;28;20478;-85
2022/10/24 13:07:55;;;;;;;10.20;3.40;;;17.00;94.10;;;17.22;80.74;97780.13;5048978;28;20452;-81
2022/10/24 13:10:37;;;;;;;5.50;2.87;;;17.10;94.30;;;17.25;80.54;97748.72;5047518;28;20489;-78
2022/10/24 13:13:36;;;;;;;7.33;3.57;;;17.00;94.30;;;17.41;79.91;97755.09;5064406;28;20534;-83
2022/10/24 13:16:16;;;;;;;6.03;3.27;;;17.10;94.30;;;17.50;79.80;97764.41;5038066;28;20877;-80
2022/10/24 13:19:03;;;;;;;6.77;3.60;;;17.20;94.00;;;17.28;79.86;97770.88;5048723;28;20552;-82
2022/10/24 13:21:36;;;;;;;7.67;3.70;;;17.20;93.70;;;17.39;79.62;97758.06;5041888;28;20468;-84
2022/10/24 13:24:20;;;;;;;6.60;3.60;;;17.10;93.70;;;17.02;79.81;97766.34;5043293;28;20880;-80
2022/10/24 13:26:52;;;;;;;6.20;3.30;;;17.00;93.30;;;16.75;81.15;97775.41;5044478;28;20467;-86
2022/10/24 13:30:04;;;;;;;5.13;3.20;;;16.80;93.90;;;16.47;82.41;97771.94;5051156;28;20839;-82
2022/10/24 13:32:34;;;;;;;8.67;4.60;;;16.50;94.40;;;16.61;82.22;97786.78;5009091;28;20482;-80
2022/10/24 13:35:03;;;;;;;4.30;3.10;;;16.40;95.10;;;16.77;81.62;97778.72;5053752;28;20979;-85
2022/10/24 13:37:40;;;;;;;5.73;3.07;;;16.50;95.20;;;16.55;82.48;97766.00;5054895;28;20503;-74
2022/10/24 13:40:15;;;;;;;9.83;3.80;;;16.40;95.30;;;16.34;84.64;97782.19;5038493;28;21181;-74
2022/10/24 13:42:50;;;;;;;8.83;3.70;;;16.30;97.20;;;16.20;85.46;97753.72;5037862;28;20453;-75
2022/10/24 13:45:26;;;;;;;6.20;3.43;;;16.10;98.10;;;16.35;85.04;97772.94;5042923;28;20491;-75
2022/10/24 13:48:01;;;;;;;4.40;3.57;;;16.10;98.40;;;16.30;84.22;97764.69;5046900;28;20453;-74
2022/10/24 13:50:30;;;;;;;5.37;3.27;;;16.10;98.00;;;16.28;83.86;97751.34;5045130;28;21156;-74
2022/10/24 13:53:03;;;;;;;8.27;3.70;;;16.10;96.80;;;16.18;84.47;97744.97;5038488;28;20484;-73
2022/10/24 13:55:35;;;;;;;7.10;3.27;;;16.00;97.20;;;16.13;83.92;97702.94;5042996;28;21171;-75
2022/10/24 13:58:13;;;;;;;4.60;2.63;;;16.10;97.20;;;16.17;83.85;97726.97;5038388;28;20456;-75
2022/10/24 14:00:43;;;;;;;6.30;3.10;;;16.10;96.50;;;16.19;84.14;97743.91;5038233;28;20482;-78
2022/10/24 14:03:16;;;;;;;2.97;2.70;;;16.10;96.50;;;16.23;84.52;97743.13;5054791;28;20451;-80
2022/10/24 14:05:48;;;;;;;5.10;3.23;;;16.10;96.80;;;16.48;83.62;97740.88;5055177;28;20476;-80
2022/10/24 14:08:25;;;;;;;6.87;2.87;;;16.20;96.70;;;16.40;83.34;97759.34;5057884;28;20916;-86
2022/10/24 14:10:54;;;;;;;8.03;3.17;;;16.30;95.70;;;16.65;82.08;97754.34;5049323;28;20521;-84